sensor_id;sensor_type;location;lat;lon;timestamp;pressure;altitude;pressure_sealevel;temperature;humidity
71151;BME280;59071;42.138;24.768;2024-01-15T00:00:18;99273.88;;;-2.46;84.39
71151;BME280;59071;42.138;24.768;2024-01-15T00:02:43;99274.53;;;-2.54;81.62
71151;BME280;59071;42.138;24.768;2024-01-15T00:05:09;99267.88;;;-2.78;82.82
71151;BME280;59071;42.138;24.768;2024-01-15T00:07:35;99268.13;;;-3.02;82.63
71151;BME280;59071;42.138;24.768;2024-01-15T00:10:00;99272.00;;;-2.96;83.68
71151;BME280;59071;42.138;24.768;2024-01-15T00:12:26;99257.41;;;-2.87;83.02
71151;BME280;59071;42.138;24.768;2024-01-15T00:14:52;99254.06;;;-2.89;84.03
71151;BME280;59071;42.138;24.768;2024-01-15T00:17:17;99258.06;;;-2.95;83.75
71151;BME280;59071;42.138;24.768;2024-01-15T00:19:43;99268.72;;;-2.98;85.65
71151;BME280;59071;42.138;24.768;2024-01-15T00:22:08;99251.91;;;-2.84;83.76
71151;BME280;59071;42.138;24.768;2024-01-15T00:24:33;99266.09;;;-2.77;84.05
71151;BME280;59071;42.138;24.768;2024-01-15T00:26:59;99231.00;;;-3.04;84.18
71151;BME280;59071;42.138;24.768;2024-01-15T00:29:24;99260.09;;;-2.99;84.40
71151;BME280;59071;42.138;24.768;2024-01-15T00:31:50;99262.25;;;-3.04;82.08
71151;BME280;59071;42.138;24.768;2024-01-15T00:34:15;99263.81;;;-3.12;84.11
71151;BME280;59071;42.138;24.768;2024-01-15T00:36:41;99262.31;;;-3.15;84.02
71151;BME280;59071;42.138;24.768;2024-01-15T00:39:06;99255.53;;;-3.06;82.78
71151;BME280;59071;42.138;24.768;2024-01-15T00:41:31;99243.38;;;-2.96;81.30
71151;BME280;59071;42.138;24.768;2024-01-15T00:43:57;99254.69;;;-2.55;80.19
71151;BME280;59071;42.138;24.768;2024-01-15T00:46:22;99247.00;;;-2.87;82.06
71151;BME280;59071;42.138;24.768;2024-01-15T00:48:48;99248.66;;;-2.77;80.79
71151;BME280;59071;42.138;24.768;2024-01-15T00:51:13;99247.72;;;-2.76;80.89
71151;BME280;59071;42.138;24.768;2024-01-15T00:53:40;99244.28;;;-2.76;81.35
71151;BME280;59071;42.138;24.768;2024-01-15T00:56:05;99240.19;;;-2.69;81.76
71151;BME280;59071;42.138;24.768;2024-01-15T00:58:30;99232.50;;;-2.70;80.43
71151;BME280;59071;42.138;24.768;2024-01-15T01:00:56;99231.25;;;-2.76;82.62
71151;BME280;59071;42.138;24.768;2024-01-15T01:03:21;99235.81;;;-2.38;79.79
71151;BME280;59071;42.138;24.768;2024-01-15T01:05:50;99234.56;;;-2.74;81.17
71151;BME280;59071;42.138;24.768;2024-01-15T01:08:15;99231.94;;;-3.05;80.82
71151;BME280;59071;42.138;24.768;2024-01-15T01:10:41;99235.97;;;-2.70;78.70
71151;BME280;59071;42.138;24.768;2024-01-15T01:13:08;99237.03;;;-2.72;79.10
71151;BME280;59071;42.138;24.768;2024-01-15T01:15:33;99220.63;;;-2.94;81.40
71151;BME280;59071;42.138;24.768;2024-01-15T01:17:59;99224.53;;;-2.38;77.89
71151;BME280;59071;42.138;24.768;2024-01-15T01:20:24;99224.41;;;-2.27;77.91
71151;BME280;59071;42.138;24.768;2024-01-15T01:22:49;99228.34;;;-2.52;77.30
71151;BME280;59071;42.138;24.768;2024-01-15T01:25:15;99232.00;;;-2.14;75.53
71151;BME280;59071;42.138;24.768;2024-01-15T01:27:40;99226.53;;;-2.01;73.85
71151;BME280;59071;42.138;24.768;2024-01-15T01:30:06;99227.78;;;-1.95;74.52
71151;BME280;59071;42.138;24.768;2024-01-15T01:32:32;99237.34;;;-2.06;75.26
71151;BME280;59071;42.138;24.768;2024-01-15T01:34:57;99235.00;;;-2.28;75.72
71151;BME280;59071;42.138;24.768;2024-01-15T01:37:23;99231.81;;;-2.42;76.92
71151;BME280;59071;42.138;24.768;2024-01-15T01:39:48;99226.66;;;-2.63;77.71
71151;BME280;59071;42.138;24.768;2024-01-15T01:42:13;99227.78;;;-2.86;78.35
71151;BME280;59071;42.138;24.768;2024-01-15T01:44:39;99221.31;;;-2.92;79.10
71151;BME280;59071;42.138;24.768;2024-01-15T01:47:05;99226.84;;;-2.85;78.87
71151;BME280;59071;42.138;24.768;2024-01-15T01:49:31;99217.41;;;-2.77;78.30
71151;BME280;59071;42.138;24.768;2024-01-15T01:51:59;99216.03;;;-2.81;78.23
71151;BME280;59071;42.138;24.768;2024-01-15T01:54:26;99209.78;;;-2.99;79.41
71151;BME280;59071;42.138;24.768;2024-01-15T01:56:54;99205.66;;;-2.61;76.39
71151;BME280;59071;42.138;24.768;2024-01-15T01:59:21;99205.34;;;-2.78;76.91
71151;BME280;59071;42.138;24.768;2024-01-15T02:01:48;99206.81;;;-2.44;74.62
71151;BME280;59071;42.138;24.768;2024-01-15T02:04:14;99211.88;;;-2.93;74.15
71151;BME280;59071;42.138;24.768;2024-01-15T02:06:40;99210.94;;;-3.13;77.86
71151;BME280;59071;42.138;24.768;2024-01-15T02:09:07;99209.78;;;-3.20;76.58
71151;BME280;59071;42.138;24.768;2024-01-15T02:11:33;99209.06;;;-3.01;77.44
71151;BME280;59071;42.138;24.768;2024-01-15T02:13:58;99218.69;;;-3.23;76.94
71151;BME280;59071;42.138;24.768;2024-01-15T02:16:23;99206.81;;;-3.16;75.24
71151;BME280;59071;42.138;24.768;2024-01-15T02:18:49;99207.16;;;-2.99;76.47
71151;BME280;59071;42.138;24.768;2024-01-15T02:21:15;99204.22;;;-2.85;76.22
71151;BME280;59071;42.138;24.768;2024-01-15T02:23:41;99191.84;;;-2.92;76.88
71151;BME280;59071;42.138;24.768;2024-01-15T02:26:07;99207.16;;;-2.28;77.72
71151;BME280;59071;42.138;24.768;2024-01-15T02:28:33;99200.59;;;-1.54;76.05
71151;BME280;59071;42.138;24.768;2024-01-15T02:30:59;99212.38;;;-1.30;75.77
71151;BME280;59071;42.138;24.768;2024-01-15T02:33:24;99200.88;;;-1.57;81.23
71151;BME280;59071;42.138;24.768;2024-01-15T02:35:50;99187.16;;;-1.88;78.06
71151;BME280;59071;42.138;24.768;2024-01-15T02:38:16;99193.06;;;-1.96;77.66
71151;BME280;59071;42.138;24.768;2024-01-15T02:40:43;99197.59;;;-2.58;78.05
71151;BME280;59071;42.138;24.768;2024-01-15T02:43:09;99207.81;;;-2.76;79.43
71151;BME280;59071;42.138;24.768;2024-01-15T02:45:34;99208.00;;;-2.99;81.19
71151;BME280;59071;42.138;24.768;2024-01-15T02:48:00;99213.38;;;-2.90;80.54
71151;BME280;59071;42.138;24.768;2024-01-15T02:50:25;99209.13;;;-2.91;80.10
71151;BME280;59071;42.138;24.768;2024-01-15T02:52:51;99191.28;;;-2.96;80.56
71151;BME280;59071;42.138;24.768;2024-01-15T02:55:16;99201.00;;;-2.98;79.87
71151;BME280;59071;42.138;24.768;2024-01-15T02:57:42;99197.31;;;-3.26;81.20
71151;BME280;59071;42.138;24.768;2024-01-15T03:00:07;99178.22;;;-3.37;80.72
71151;BME280;59071;42.138;24.768;2024-01-15T03:02:36;99191.78;;;-3.12;80.57
71151;BME280;59071;42.138;24.768;2024-01-15T03:05:04;99188.97;;;-3.20;80.23
71151;BME280;59071;42.138;24.768;2024-01-15T03:07:29;99183.72;;;-3.30;82.52
71151;BME280;59071;42.138;24.768;2024-01-15T03:09:55;99179.28;;;-3.39;82.27
71151;BME280;59071;42.138;24.768;2024-01-15T03:12:20;99176.19;;;-3.33;83.08
71151;BME280;59071;42.138;24.768;2024-01-15T03:14:45;99173.25;;;-3.40;82.08
71151;BME280;59071;42.138;24.768;2024-01-15T03:17:11;99188.56;;;-3.46;81.26
71151;BME280;59071;42.138;24.768;2024-01-15T03:19:37;99198.75;;;-3.55;82.74
71151;BME280;59071;42.138;24.768;2024-01-15T03:22:02;99194.25;;;-3.31;83.26
71151;BME280;59071;42.138;24.768;2024-01-15T03:24:29;99178.47;;;-3.40;81.47
71151;BME280;59071;42.138;24.768;2024-01-15T03:26:54;99188.41;;;-3.66;82.90
71151;BME280;59071;42.138;24.768;2024-01-15T03:29:19;99183.72;;;-3.51;84.25
71151;BME280;59071;42.138;24.768;2024-01-15T03:31:45;99179.84;;;-3.57;82.21
71151;BME280;59071;42.138;24.768;2024-01-15T03:34:11;99169.84;;;-3.61;81.39
71151;BME280;59071;42.138;24.768;2024-01-15T03:36:36;99177.66;;;-3.61;82.28
71151;BME280;59071;42.138;24.768;2024-01-15T03:39:02;99177.53;;;-3.60;82.76
71151;BME280;59071;42.138;24.768;2024-01-15T03:41:27;99163.56;;;-3.59;84.19
71151;BME280;59071;42.138;24.768;2024-01-15T03:43:53;99182.41;;;-3.45;83.60
71151;BME280;59071;42.138;24.768;2024-01-15T03:46:18;99181.94;;;-3.50;83.06
71151;BME280;59071;42.138;24.768;2024-01-15T03:48:43;99182.97;;;-3.63;84.92
71151;BME280;59071;42.138;24.768;2024-01-15T03:51:09;99193.19;;;-3.50;85.85
71151;BME280;59071;42.138;24.768;2024-01-15T03:53:34;99200.78;;;-3.58;84.63
71151;BME280;59071;42.138;24.768;2024-01-15T03:55:59;99198.38;;;-3.71;85.92
71151;BME280;59071;42.138;24.768;2024-01-15T03:58:25;99196.03;;;-3.74;84.45
71151;BME280;59071;42.138;24.768;2024-01-15T04:00:50;99190.78;;;-3.63;84.22
71151;BME280;59071;42.138;24.768;2024-01-15T04:03:15;99193.69;;;-3.56;84.24
71151;BME280;59071;42.138;24.768;2024-01-15T04:05:41;99190.59;;;-3.29;82.71
71151;BME280;59071;42.138;24.768;2024-01-15T04:08:06;99182.22;;;-3.32;83.30
71151;BME280;59071;42.138;24.768;2024-01-15T04:10:32;99167.66;;;-3.56;82.26
71151;BME280;59071;42.138;24.768;2024-01-15T04:12:57;99173.72;;;-3.56;83.76
71151;BME280;59071;42.138;24.768;2024-01-15T04:15:24;99176.88;;;-3.31;82.80
71151;BME280;59071;42.138;24.768;2024-01-15T04:17:50;99174.53;;;-3.34;86.34
71151;BME280;59071;42.138;24.768;2024-01-15T04:20:15;99186.03;;;-3.58;81.90
71151;BME280;59071;42.138;24.768;2024-01-15T04:22:41;99184.38;;;-3.59;80.71
71151;BME280;59071;42.138;24.768;2024-01-15T04:25:06;99182.94;;;-3.21;82.67
71151;BME280;59071;42.138;24.768;2024-01-15T04:27:32;99176.59;;;-3.28;81.57
71151;BME280;59071;42.138;24.768;2024-01-15T04:29:57;99179.69;;;-2.82;82.82
71151;BME280;59071;42.138;24.768;2024-01-15T04:32:22;99162.84;;;-2.18;79.31
71151;BME280;59071;42.138;24.768;2024-01-15T04:34:48;99158.88;;;-2.72;82.70
71151;BME280;59071;42.138;24.768;2024-01-15T04:37:13;99162.50;;;-3.04;82.46
71151;BME280;59071;42.138;24.768;2024-01-15T04:39:39;99145.31;;;-3.38;83.15
71151;BME280;59071;42.138;24.768;2024-01-15T04:42:05;99150.28;;;-3.35;84.58
71151;BME280;59071;42.138;24.768;2024-01-15T04:44:30;99147.16;;;-3.28;83.86
71151;BME280;59071;42.138;24.768;2024-01-15T04:46:55;99152.03;;;-3.35;84.69
71151;BME280;59071;42.138;24.768;2024-01-15T04:49:21;99157.66;;;-3.40;85.47
71151;BME280;59071;42.138;24.768;2024-01-15T04:51:46;99153.41;;;-3.10;84.24
71151;BME280;59071;42.138;24.768;2024-01-15T04:54:11;99151.75;;;-3.63;85.77
71151;BME280;59071;42.138;24.768;2024-01-15T04:56:37;99156.94;;;-3.42;85.26
71151;BME280;59071;42.138;24.768;2024-01-15T04:59:02;99159.78;;;-3.24;85.26
71151;BME280;59071;42.138;24.768;2024-01-15T05:01:32;99152.38;;;-3.28;85.19
71151;BME280;59071;42.138;24.768;2024-01-15T05:03:57;99149.72;;;-3.38;85.97
71151;BME280;59071;42.138;24.768;2024-01-15T05:06:23;99146.16;;;-3.37;85.75
71151;BME280;59071;42.138;24.768;2024-01-15T05:08:48;99150.66;;;-3.39;84.69
71151;BME280;59071;42.138;24.768;2024-01-15T05:11:13;99142.44;;;-3.44;85.93
71151;BME280;59071;42.138;24.768;2024-01-15T05:13:40;99121.25;;;-3.61;85.91
71151;BME280;59071;42.138;24.768;2024-01-15T05:16:05;99115.97;;;-3.49;85.83
71151;BME280;59071;42.138;24.768;2024-01-15T05:18:31;99119.88;;;-3.34;84.98
71151;BME280;59071;42.138;24.768;2024-01-15T05:20:56;99117.59;;;-3.48;86.04
71151;BME280;59071;42.138;24.768;2024-01-15T05:23:22;99117.59;;;-3.48;86.40
71151;BME280;59071;42.138;24.768;2024-01-15T05:25:47;99114.88;;;-3.47;84.82
71151;BME280;59071;42.138;24.768;2024-01-15T05:28:13;99115.56;;;-3.45;85.26
71151;BME280;59071;42.138;24.768;2024-01-15T05:30:39;99119.84;;;-3.44;85.84
71151;BME280;59071;42.138;24.768;2024-01-15T05:33:04;99103.22;;;-3.53;87.83
71151;BME280;59071;42.138;24.768;2024-01-15T05:35:29;99113.59;;;-3.53;86.60
71151;BME280;59071;42.138;24.768;2024-01-15T05:37:55;99104.00;;;-3.31;88.77
71151;BME280;59071;42.138;24.768;2024-01-15T05:40:20;99100.50;;;-3.10;89.34
71151;BME280;59071;42.138;24.768;2024-01-15T05:42:45;99110.81;;;-3.40;86.33
71151;BME280;59071;42.138;24.768;2024-01-15T05:45:11;99102.44;;;-3.43;85.47
71151;BME280;59071;42.138;24.768;2024-01-15T05:47:36;99103.78;;;-3.70;86.90
71151;BME280;59071;42.138;24.768;2024-01-15T05:50:02;99108.72;;;-3.46;85.39
71151;BME280;59071;42.138;24.768;2024-01-15T05:52:27;99116.41;;;-3.44;86.24
71151;BME280;59071;42.138;24.768;2024-01-15T05:54:53;99121.34;;;-3.41;85.85
71151;BME280;59071;42.138;24.768;2024-01-15T05:57:18;99134.97;;;-3.28;85.56
71151;BME280;59071;42.138;24.768;2024-01-15T05:59:44;99134.09;;;-3.38;87.32
71151;BME280;59071;42.138;24.768;2024-01-15T06:02:10;99133.56;;;-3.32;87.81
71151;BME280;59071;42.138;24.768;2024-01-15T06:04:36;99138.53;;;-3.29;87.29
71151;BME280;59071;42.138;24.768;2024-01-15T06:07:01;99135.03;;;-3.39;87.54
71151;BME280;59071;42.138;24.768;2024-01-15T06:09:27;99131.09;;;-3.03;86.16
71151;BME280;59071;42.138;24.768;2024-01-15T06:11:53;99117.88;;;-3.21;85.90
71151;BME280;59071;42.138;24.768;2024-01-15T06:14:18;99110.50;;;-3.16;84.98
71151;BME280;59071;42.138;24.768;2024-01-15T06:16:43;99117.66;;;-3.08;85.71
71151;BME280;59071;42.138;24.768;2024-01-15T06:19:09;99115.03;;;-3.18;84.50
71151;BME280;59071;42.138;24.768;2024-01-15T06:21:34;99127.34;;;-3.20;85.20
71151;BME280;59071;42.138;24.768;2024-01-15T06:23:59;99142.75;;;-2.97;84.85
71151;BME280;59071;42.138;24.768;2024-01-15T06:26:25;99147.13;;;-3.07;84.91
71151;BME280;59071;42.138;24.768;2024-01-15T06:28:50;99143.81;;;-3.09;85.53
71151;BME280;59071;42.138;24.768;2024-01-15T06:31:16;99151.53;;;-2.98;85.32
71151;BME280;59071;42.138;24.768;2024-01-15T06:33:42;99146.63;;;-2.91;85.21
71151;BME280;59071;42.138;24.768;2024-01-15T06:36:08;99147.91;;;-2.76;84.12
71151;BME280;59071;42.138;24.768;2024-01-15T06:38:33;99152.59;;;-2.70;84.78
71151;BME280;59071;42.138;24.768;2024-01-15T06:40:59;99146.28;;;-2.67;84.38
71151;BME280;59071;42.138;24.768;2024-01-15T06:43:24;99148.34;;;-2.71;85.44
71151;BME280;59071;42.138;24.768;2024-01-15T06:45:50;99144.94;;;-2.52;84.16
71151;BME280;59071;42.138;24.768;2024-01-15T06:48:15;99141.91;;;-2.57;83.92
71151;BME280;59071;42.138;24.768;2024-01-15T06:50:44;99145.75;;;-2.61;84.70
71151;BME280;59071;42.138;24.768;2024-01-15T06:53:10;99134.81;;;-2.55;84.21
71151;BME280;59071;42.138;24.768;2024-01-15T06:55:36;99135.41;;;-2.32;82.80
71151;BME280;59071;42.138;24.768;2024-01-15T06:58:01;99126.03;;;-2.54;82.10
71151;BME280;59071;42.138;24.768;2024-01-15T07:00:26;99134.97;;;-2.47;82.67
71151;BME280;59071;42.138;24.768;2024-01-15T07:02:52;99128.94;;;-2.47;82.71
71151;BME280;59071;42.138;24.768;2024-01-15T07:05:18;99138.13;;;-2.14;81.45
71151;BME280;59071;42.138;24.768;2024-01-15T07:07:43;99128.81;;;-2.07;80.16
71151;BME280;59071;42.138;24.768;2024-01-15T07:10:09;99114.81;;;-2.25;80.57
71151;BME280;59071;42.138;24.768;2024-01-15T07:12:35;99130.59;;;-1.98;80.13
71151;BME280;59071;42.138;24.768;2024-01-15T07:15:00;99120.31;;;-2.09;82.19
71151;BME280;59071;42.138;24.768;2024-01-15T07:17:27;99126.06;;;-1.95;80.48
71151;BME280;59071;42.138;24.768;2024-01-15T07:19:52;99130.31;;;-1.75;80.68
71151;BME280;59071;42.138;24.768;2024-01-15T07:22:17;99123.69;;;-1.79;80.47
71151;BME280;59071;42.138;24.768;2024-01-15T07:24:43;99118.38;;;-1.87;80.62
71151;BME280;59071;42.138;24.768;2024-01-15T07:27:09;99125.91;;;-1.74;80.31
71151;BME280;59071;42.138;24.768;2024-01-15T07:29:35;99115.34;;;-1.83;80.98
71151;BME280;59071;42.138;24.768;2024-01-15T07:32:03;99128.66;;;-1.76;80.26
71151;BME280;59071;42.138;24.768;2024-01-15T07:34:28;99135.06;;;-1.51;80.87
71151;BME280;59071;42.138;24.768;2024-01-15T07:36:54;99126.72;;;-1.17;79.44
71151;BME280;59071;42.138;24.768;2024-01-15T07:39:19;99125.81;;;-0.98;79.18
71151;BME280;59071;42.138;24.768;2024-01-15T07:41:44;99131.88;;;-0.70;77.76
71151;BME280;59071;42.138;24.768;2024-01-15T07:44:10;99142.50;;;-0.53;77.45
71151;BME280;59071;42.138;24.768;2024-01-15T07:46:35;99137.44;;;-0.37;76.45
71151;BME280;59071;42.138;24.768;2024-01-15T07:49:01;99142.53;;;0.18;74.59
71151;BME280;59071;42.138;24.768;2024-01-15T07:51:26;99144.94;;;0.38;73.63
71151;BME280;59071;42.138;24.768;2024-01-15T07:53:54;99141.28;;;0.49;73.31
71151;BME280;59071;42.138;24.768;2024-01-15T07:56:22;99138.22;;;0.53;72.87
71151;BME280;59071;42.138;24.768;2024-01-15T07:58:48;99141.91;;;0.25;73.03
71151;BME280;59071;42.138;24.768;2024-01-15T08:01:13;99147.09;;;0.34;73.24
71151;BME280;59071;42.138;24.768;2024-01-15T08:03:39;99154.75;;;0.54;72.30
71151;BME280;59071;42.138;24.768;2024-01-15T08:06:05;99142.84;;;0.60;72.46
71151;BME280;59071;42.138;24.768;2024-01-15T08:08:31;99162.78;;;0.61;72.17
71151;BME280;59071;42.138;24.768;2024-01-15T08:10:56;99163.19;;;1.00;71.17
71151;BME280;59071;42.138;24.768;2024-01-15T08:13:21;99171.56;;;1.38;70.97
71151;BME280;59071;42.138;24.768;2024-01-15T08:15:47;99176.75;;;1.81;68.83
71151;BME280;59071;42.138;24.768;2024-01-15T08:18:12;99178.63;;;2.05;67.95
71151;BME280;59071;42.138;24.768;2024-01-15T08:20:38;99157.94;;;2.18;68.67
71151;BME280;59071;42.138;24.768;2024-01-15T08:23:04;99164.69;;;2.53;67.92
71151;BME280;59071;42.138;24.768;2024-01-15T08:25:29;99167.44;;;2.60;65.96
71151;BME280;59071;42.138;24.768;2024-01-15T08:27:56;99157.94;;;2.59;64.91
71151;BME280;59071;42.138;24.768;2024-01-15T08:30:21;99165.50;;;2.70;63.51
71151;BME280;59071;42.138;24.768;2024-01-15T08:32:50;99173.53;;;2.61;64.42
71151;BME280;59071;42.138;24.768;2024-01-15T08:35:15;99171.53;;;2.79;63.41
71151;BME280;59071;42.138;24.768;2024-01-15T08:37:40;99170.16;;;3.08;62.86
71151;BME280;59071;42.138;24.768;2024-01-15T08:40:06;99170.22;;;2.83;62.90
71151;BME280;59071;42.138;24.768;2024-01-15T08:42:31;99150.66;;;2.78;63.75
71151;BME280;59071;42.138;24.768;2024-01-15T08:44:57;99149.53;;;2.72;62.82
71151;BME280;59071;42.138;24.768;2024-01-15T08:47:22;99148.59;;;2.48;64.42
71151;BME280;59071;42.138;24.768;2024-01-15T08:49:47;99145.81;;;2.50;64.35
71151;BME280;59071;42.138;24.768;2024-01-15T08:52:13;99127.41;;;2.58;63.52
71151;BME280;59071;42.138;24.768;2024-01-15T08:54:39;99125.00;;;2.96;61.99
71151;BME280;59071;42.138;24.768;2024-01-15T08:57:04;99117.94;;;2.97;61.40
71151;BME280;59071;42.138;24.768;2024-01-15T08:59:29;99109.97;;;2.65;62.76
71151;BME280;59071;42.138;24.768;2024-01-15T09:01:55;99114.38;;;2.81;62.66
71151;BME280;59071;42.138;24.768;2024-01-15T09:04:23;99103.00;;;2.89;62.80
71151;BME280;59071;42.138;24.768;2024-01-15T09:06:48;99103.56;;;3.16;61.21
71151;BME280;59071;42.138;24.768;2024-01-15T09:09:14;99093.19;;;3.22;60.38
71151;BME280;59071;42.138;24.768;2024-01-15T09:11:42;99095.28;;;3.35;59.63
71151;BME280;59071;42.138;24.768;2024-01-15T09:14:07;99096.81;;;3.21;60.96
71151;BME280;59071;42.138;24.768;2024-01-15T09:16:33;99098.78;;;3.19;61.03
71151;BME280;59071;42.138;24.768;2024-01-15T09:18:59;99092.34;;;3.22;61.19
71151;BME280;59071;42.138;24.768;2024-01-15T09:21:25;99094.34;;;3.20;61.33
71151;BME280;59071;42.138;24.768;2024-01-15T09:23:50;99091.81;;;2.95;61.81
71151;BME280;59071;42.138;24.768;2024-01-15T09:26:16;99102.06;;;3.21;61.21
71151;BME280;59071;42.138;24.768;2024-01-15T09:28:41;99094.16;;;3.29;60.92
71151;BME280;59071;42.138;24.768;2024-01-15T09:31:07;99083.13;;;2.94;61.76
71151;BME280;59071;42.138;24.768;2024-01-15T09:33:32;99089.41;;;3.25;61.94
71151;BME280;59071;42.138;24.768;2024-01-15T09:36:01;99076.41;;;2.92;61.77
71151;BME280;59071;42.138;24.768;2024-01-15T09:38:29;99071.41;;;3.05;61.75
71151;BME280;59071;42.138;24.768;2024-01-15T09:40:54;99060.41;;;3.02;61.36
71151;BME280;59071;42.138;24.768;2024-01-15T09:43:21;99081.28;;;3.35;61.33
71151;BME280;59071;42.138;24.768;2024-01-15T09:45:46;99073.22;;;3.36;61.30
71151;BME280;59071;42.138;24.768;2024-01-15T09:48:12;99064.81;;;3.41;61.06
71151;BME280;59071;42.138;24.768;2024-01-15T09:50:38;99053.72;;;3.77;61.04
71151;BME280;59071;42.138;24.768;2024-01-15T09:53:05;99054.72;;;3.52;61.12
71151;BME280;59071;42.138;24.768;2024-01-15T09:55:31;99064.59;;;3.97;60.50
71151;BME280;59071;42.138;24.768;2024-01-15T09:57:59;99038.13;;;3.90;59.88
71151;BME280;59071;42.138;24.768;2024-01-15T10:00:26;99031.53;;;3.71;61.33
71151;BME280;59071;42.138;24.768;2024-01-15T10:02:52;99024.47;;;3.95;60.44
71151;BME280;59071;42.138;24.768;2024-01-15T10:05:17;99019.78;;;3.82;61.48
71151;BME280;59071;42.138;24.768;2024-01-15T10:07:43;99020.56;;;4.05;61.23
71151;BME280;59071;42.138;24.768;2024-01-15T10:10:11;99024.06;;;4.36;60.35
71151;BME280;59071;42.138;24.768;2024-01-15T10:12:36;99020.78;;;4.34;60.20
71151;BME280;59071;42.138;24.768;2024-01-15T10:15:03;99016.78;;;4.38;60.01
71151;BME280;59071;42.138;24.768;2024-01-15T10:17:29;99005.34;;;4.45;60.32
71151;BME280;59071;42.138;24.768;2024-01-15T10:19:56;99007.13;;;4.00;61.38
71151;BME280;59071;42.138;24.768;2024-01-15T10:22:22;99015.84;;;4.01;61.73
71151;BME280;59071;42.138;24.768;2024-01-15T10:24:48;98991.81;;;4.34;60.25
71151;BME280;59071;42.138;24.768;2024-01-15T10:27:14;98980.63;;;4.02;61.06
71151;BME280;59071;42.138;24.768;2024-01-15T10:29:41;98975.00;;;4.20;59.88
71151;BME280;59071;42.138;24.768;2024-01-15T10:32:07;98969.13;;;4.33;59.89
71151;BME280;59071;42.138;24.768;2024-01-15T10:34:39;98964.66;;;4.18;60.80
71151;BME280;59071;42.138;24.768;2024-01-15T10:37:08;98941.94;;;4.47;59.78
71151;BME280;59071;42.138;24.768;2024-01-15T10:39:34;98932.59;;;4.81;58.70
71151;BME280;59071;42.138;24.768;2024-01-15T10:41:59;98924.03;;;4.94;58.75
71151;BME280;59071;42.138;24.768;2024-01-15T10:44:25;98909.31;;;4.84;58.33
71151;BME280;59071;42.138;24.768;2024-01-15T10:46:51;98911.97;;;5.06;57.59
71151;BME280;59071;42.138;24.768;2024-01-15T10:49:16;98910.28;;;5.20;57.78
71151;BME280;59071;42.138;24.768;2024-01-15T10:51:44;98924.50;;;4.82;56.79
71151;BME280;59071;42.138;24.768;2024-01-15T10:54:10;98904.31;;;5.11;56.86
71151;BME280;59071;42.138;24.768;2024-01-15T10:56:37;98926.28;;;5.40;55.79
71151;BME280;59071;42.138;24.768;2024-01-15T10:59:03;98924.47;;;5.40;56.95
71151;BME280;59071;42.138;24.768;2024-01-15T11:01:30;98919.78;;;5.64;57.08
71151;BME280;59071;42.138;24.768;2024-01-15T11:03:56;98911.34;;;6.03;55.84
71151;BME280;59071;42.138;24.768;2024-01-15T11:06:24;98918.34;;;6.18;54.46
71151;BME280;59071;42.138;24.768;2024-01-15T11:08:50;98917.28;;;5.84;55.33
71151;BME280;59071;42.138;24.768;2024-01-15T11:11:21;98898.94;;;6.39;53.71
71151;BME280;59071;42.138;24.768;2024-01-15T11:13:47;98879.72;;;6.72;52.58
71151;BME280;59071;42.138;24.768;2024-01-15T11:16:15;98876.72;;;6.26;53.16
71151;BME280;59071;42.138;24.768;2024-01-15T11:21:23;98869.03;;;7.20;50.82
71151;BME280;59071;42.138;24.768;2024-01-15T11:24:01;98852.13;;;7.28;50.53
71151;BME280;59071;42.138;24.768;2024-01-15T11:28:54;98853.97;;;7.20;49.86
71151;BME280;59071;42.138;24.768;2024-01-15T11:31:19;98875.09;;;7.14;50.05
71151;BME280;59071;42.138;24.768;2024-01-15T11:33:49;98851.94;;;7.42;49.91
71151;BME280;59071;42.138;24.768;2024-01-15T11:36:15;98849.66;;;7.66;48.31
71151;BME280;59071;42.138;24.768;2024-01-15T11:38:40;98856.78;;;7.59;47.15
71151;BME280;59071;42.138;24.768;2024-01-15T11:41:14;98854.97;;;7.66;47.53
71151;BME280;59071;42.138;24.768;2024-01-15T11:43:43;98846.22;;;7.46;47.34
71151;BME280;59071;42.138;24.768;2024-01-15T11:46:11;98847.25;;;7.38;48.20
71151;BME280;59071;42.138;24.768;2024-01-15T11:48:44;98835.63;;;7.66;46.44
71151;BME280;59071;42.138;24.768;2024-01-15T11:51:12;98847.81;;;7.73;47.31
71151;BME280;59071;42.138;24.768;2024-01-15T11:53:48;98842.78;;;7.32;47.11
71151;BME280;59071;42.138;24.768;2024-01-15T11:56:17;98851.91;;;7.02;48.96
71151;BME280;59071;42.138;24.768;2024-01-15T11:58:43;98842.75;;;6.98;47.83
71151;BME280;59071;42.138;24.768;2024-01-15T12:01:10;98831.56;;;7.16;47.09
71151;BME280;59071;42.138;24.768;2024-01-15T12:03:36;98823.22;;;7.13;47.38
71151;BME280;59071;42.138;24.768;2024-01-15T12:06:02;98809.19;;;6.99;47.69
71151;BME280;59071;42.138;24.768;2024-01-15T12:08:27;98813.25;;;6.88;48.25
71151;BME280;59071;42.138;24.768;2024-01-15T12:10:53;98832.94;;;6.65;49.78
71151;BME280;59071;42.138;24.768;2024-01-15T12:13:19;98829.72;;;6.83;50.04
71151;BME280;59071;42.138;24.768;2024-01-15T12:15:46;98829.69;;;6.63;50.09
71151;BME280;59071;42.138;24.768;2024-01-15T12:18:20;98834.59;;;6.87;50.51
71151;BME280;59071;42.138;24.768;2024-01-15T12:20:46;98830.53;;;6.97;50.80
71151;BME280;59071;42.138;24.768;2024-01-15T12:23:12;98827.72;;;7.12;50.54
71151;BME280;59071;42.138;24.768;2024-01-15T12:25:38;98816.88;;;6.87;50.78
71151;BME280;59071;42.138;24.768;2024-01-15T12:28:05;98807.66;;;6.36;53.51
71151;BME280;59071;42.138;24.768;2024-01-15T12:30:30;98799.16;;;5.99;55.09
71151;BME280;59071;42.138;24.768;2024-01-15T12:33:03;98807.41;;;6.24;55.25
71151;BME280;59071;42.138;24.768;2024-01-15T12:35:32;98801.94;;;5.91;56.10
71151;BME280;59071;42.138;24.768;2024-01-15T12:38:00;98800.31;;;6.32;55.74
71151;BME280;59071;42.138;24.768;2024-01-15T12:40:29;98804.16;;;6.29;56.41
71151;BME280;59071;42.138;24.768;2024-01-15T12:42:55;98797.22;;;6.21;55.71
71151;BME280;59071;42.138;24.768;2024-01-15T12:45:21;98802.38;;;6.36;56.31
71151;BME280;59071;42.138;24.768;2024-01-15T12:47:46;98808.44;;;6.30;55.92
71151;BME280;59071;42.138;24.768;2024-01-15T12:50:12;98799.09;;;5.51;58.16
71151;BME280;59071;42.138;24.768;2024-01-15T12:52:41;98803.75;;;5.49;58.15